Latest Weather Observations for Clermont Airport

IDQ60801

Issued at 12:32 pm EST Thursday 28 July 2016 (issued every 30 minutes, with the page automatically refreshed every 10 minutes)

About weather observations | Map of weather stations | Latest weather observations for QLD | Other Formats
Station Details ID: 035124 Name: CLERMONT AIRPORT Lat: -22.78 Lon: 147.62 Height: 270.27 m
Data from the previous 72 hours. | See also: Recent months at Clermont Airport
Date/Time
EST
Temp
°C
App
Temp
°C
Dew
Point
°C
Rel
Hum
%
Delta-T
°C
Wind Press
QNH
hPa
Press
MSL
hPa
Rain since
9am
mm
Dir  Spd
km/h
Gust
km/h
Spd
kts
Gust
kts
28/12:30pm 19.1 15.4 4.5 38 7.1 ESE 13 22 7 12 1023.4 1023.1 0.0
28/12:00pm 18.4 14.3 4.6 40 6.7 ESE 15 24 8 13 1023.8 1023.5 0.0
28/11:30am 17.9 13.7 3.8 39 6.7 ESE 15 22 8 12 1024.3 1024.0 0.0
28/11:00am 16.9 12.4 4.3 43 6.0 SE 17 30 9 16 1024.7 1024.4 0.0
28/10:30am 16.1 11.7 4.5 46 5.5 SE 17 30 9 16 1025.0 1024.8 0.0
28/10:00am 15.3 11.3 4.7 49 5.0 SE 15 24 8 13 1025.1 1024.9 0.0
28/09:30am 14.2 11.2 5.8 57 4.0 SE 11 20 6 11 1025.3 1025.1 0.0
28/09:00am 12.8 10.5 5.9 63 3.3 SE 7 15 4 8 1025.2 1025.0 0.0
28/08:30am 10.8 8.9 6.6 75 2.0 ESE 6 9 3 5 1024.9 1024.7 0.0
28/08:00am 8.2 7.2 5.7 84 1.1 CALM 0 4 0 2 1024.7 1024.4 0.0
28/07:30am 6.4 5.4 5.5 94 0.4 CALM 0 0 0 0 1024.2 1023.9 0.0
28/07:00am 4.8 3.4 3.8 93 0.4 CALM 0 0 0 0 1024.0 1023.7 0.0
28/06:30am 4.7 3.3 3.7 93 0.4 CALM 0 0 0 0 1023.8 1023.5 0.0
28/06:00am 4.7 3.3 3.5 92 0.5 CALM 0 0 0 0 1023.4 1023.1 0.0
28/05:30am 5.9 3.6 4.9 93 0.4 SSW 6 7 3 4 1023.0 1022.7 0.0
28/05:00am 5.1 3.8 3.9 92 0.5 CALM 0 4 0 2 1022.9 1022.6 0.0
28/04:30am 5.8 3.5 4.8 93 0.4 SSW 6 9 3 5 1022.9 1022.6 0.0
28/04:00am 5.2 3.9 4.2 93 0.4 CALM 0 0 0 0 1023.0 1022.7 0.0
28/03:30am 5.4 3.0 4.4 93 0.4 SW 6 7 3 4 1023.0 1022.7 0.0
28/03:00am 5.8 4.3 4.8 93 0.4 SSE 2 4 1 2 1023.1 1022.8 0.0
28/02:30am 5.7 4.5 4.5 92 0.5 CALM 0 0 0 0 1023.0 1022.7 0.0
28/02:00am 6.3 5.2 5.1 92 0.5 CALM 0 0 0 0 1022.9 1022.6 0.0
28/01:30am 6.5 5.4 5.3 92 0.5 CALM 0 0 0 0 1022.9 1022.6 0.0
28/01:00am 6.9 5.9 5.5 91 0.6 CALM 0 0 0 0 1023.1 1022.8 0.0
28/12:30am 7.7 6.9 6.5 92 0.6 CALM 0 2 0 1 1023.2 1022.9 0.0
28/12:00am 7.8 6.9 6.1 89 0.8 CALM 0 0 0 0 1022.9 1022.6 0.0
 
Date/Time
EST
Temp
°C
App
Temp
°C
Dew
Point
°C
Rel
Hum
%
Delta-T
°C
Wind Press
QNH
hPa
Press
MSL
hPa
Rain since
9am
mm
Dir  Spd
km/h
Gust
km/h
Spd
kts
Gust
kts
27/11:30pm 8.6 7.8 6.6 87 0.9 CALM 0 0 0 0 1023.0 1022.7 0.0
27/11:00pm 9.5 8.9 7.4 87 1.0 CALM 0 2 0 1 1023.1 1022.8 0.0
27/10:30pm 9.7 8.1 7.8 88 0.9 SW 6 6 3 3 1023.2 1022.9 0.0
27/10:00pm 10.1 8.5 8.2 88 0.9 SW 6 7 3 4 1023.1 1022.8 0.0
27/09:30pm 10.5 9.0 8.6 88 0.9 SW 6 6 3 3 1023.1 1022.8 0.0
27/09:00pm 11.5 10.6 9.2 86 1.2 WSW 4 7 2 4 1022.7 1022.4 0.0
27/08:30pm 12.7 12.3 9.7 82 1.6 SW 2 4 1 2 1022.4 1022.1 0.0
27/08:00pm 13.8 13.5 10.2 79 1.9 SW 2 2 1 1 1022.1 1021.8 0.0
27/07:30pm 14.2 13.7 9.4 73 2.5 SSW 2 4 1 2 1021.6 1021.4 0.0
27/07:00pm 15.5 14.8 8.7 64 3.5 S 2 2 1 1 1021.2 1020.9 0.0
27/06:30pm 16.8 15.6 8.2 57 4.4 S 4 6 2 3 1020.9 1020.6 0.0
27/06:00pm 18.1 16.5 7.8 51 5.3 S 6 9 3 5 1020.7 1020.4 0.0
27/05:30pm 19.3 17.6 7.4 46 6.1 SSW 6 6 3 3 1020.4 1020.1 0.0
27/05:00pm 20.6 18.6 7.2 42 6.9 SSW 7 11 4 6 1020.2 1019.9 0.0
27/04:30pm 21.2 19.3 7.4 41 7.2 S 7 13 4 7 1020.0 1019.7 0.0
27/04:00pm 21.1 19.1 7.0 40 7.3 S 7 13 4 7 1019.8 1019.5 0.0
27/03:30pm 21.4 18.6 6.9 39 7.5 S 11 17 6 9 1019.6 1019.3 0.0
27/03:00pm 21.4 18.4 7.6 41 7.2 SSW 13 17 7 9 1019.7 1019.4 0.0
27/02:30pm 21.2 18.5 7.4 41 7.2 S 11 15 6 8 1019.8 1019.5 0.0
27/02:00pm 20.4 18.2 7.7 44 6.6 SSW 9 15 5 8 1020.1 1019.8 0.0
27/01:30pm 20.6 17.7 8.3 45 6.5 SSW 13 20 7 11 1020.2 1019.9 0.0
27/01:00pm 20.8 17.6 8.4 45 6.6 S 15 20 8 11 1020.3 1020.0 0.0
27/12:30pm 20.9 18.3 9.2 47 6.3 SSW 13 19 7 10 1020.7 1020.4 0.0
27/12:00pm 19.6 16.4 8.3 48 5.9 S 15 20 8 11 1021.2 1020.9 0.0
27/11:30am 18.8 15.2 8.5 51 5.4 SSW 17 24 9 13 1021.6 1021.4 0.0
27/11:00am 19.1 15.5 8.4 50 5.6 SSW 17 24 9 13 1022.0 1021.7 0.0
27/10:30am 19.9 17.1 10.0 53 5.4 SSW 15 24 8 13 1022.1 1021.8 0.0
27/10:00am 18.3 15.6 9.1 55 4.9 S 13 19 7 10 1022.0 1021.7 0.0
27/09:30am 17.1 14.9 9.5 61 4.0 S 11 15 6 8 1021.8 1021.6 0.0
27/09:00am 16.6 14.3 9.1 61 3.9 S 11 15 6 8 1021.5 1021.2 0.0
27/08:30am 16.3 14.5 9.5 64 3.6 S 9 13 5 7 1021.2 1020.9 0.0
27/08:00am 14.1 13.7 9.9 76 2.2 SSW 2 9 1 5 1020.8 1020.5 0.0
27/07:30am 11.3 10.5 9.7 90 0.8 SSW 4 7 2 4 1020.4 1020.1 0.0
27/07:00am 9.7 8.9 8.3 91 0.7 WSW 2 6 1 3 1020.1 1019.8 0.0
27/06:30am 10.6 10.0 9.0 90 0.8 SSW 2 4 1 2 1019.7 1019.4 0.0
27/06:00am 10.5 9.8 8.6 88 0.9 WNW 2 4 1 2 1019.4 1019.1 0.0
27/05:30am 11.1 9.7 9.0 87 1.1 SW 6 9 3 5 1019.5 1019.2 0.0
27/05:00am 11.4 10.2 9.5 88 1.0 N 6 6 3 3 1019.0 1018.7 0.0
27/04:30am 11.9 10.4 9.3 84 1.3 SW 7 13 4 7 1019.4 1019.1 0.0
27/04:00am 11.7 10.4 9.8 88 1.0 SW 7 7 4 4 1019.4 1019.1 0.0
27/03:30am 11.2 11.1 9.3 88 1.0 CALM 0 2 0 1 1019.3 1019.0 0.0
27/03:00am 11.5 11.5 9.9 90 0.8 CALM 0 0 0 0 1019.3 1019.0 0.0
27/02:30am 11.5 11.5 9.8 89 0.9 CALM 0 4 0 2 1019.4 1019.1 0.0
27/02:00am 11.9 11.1 9.5 85 1.2 SW 4 6 2 3 1019.5 1019.2 0.0
27/01:30am 11.6 10.7 9.3 86 1.2 SW 4 6 2 3 1019.6 1019.3 0.0
27/01:00am 11.4 11.2 9.1 86 1.2 CALM 0 2 0 1 1019.8 1019.5 0.0
27/12:30am 10.8 9.3 9.2 90 0.8 SSW 7 9 4 5 1019.8 1019.5 0.0
27/12:00am 11.2 10.4 9.5 89 0.9 SSW 4 4 2 2 1019.6 1019.3 0.0
 
Date/Time
EST
Temp
°C
App
Temp
°C
Dew
Point
°C
Rel
Hum
%
Delta-T
°C
Wind Press
QNH
hPa
Press
MSL
hPa
Rain since
9am
mm
Dir  Spd
km/h
Gust
km/h
Spd
kts
Gust
kts
26/11:30pm 11.3 10.1 9.7 90 0.8 SSW 6 6 3 3 1019.7 1019.4 0.0
26/11:00pm 11.6 11.2 9.7 88 1.0 SSW 2 4 1 2 1019.7 1019.4 0.0
26/10:30pm 12.0 11.6 9.7 86 1.2 NNE 2 4 1 2 1019.7 1019.4 0.0
26/10:00pm 12.6 11.7 9.4 81 1.6 S 4 6 2 3 1019.8 1019.5 0.0
26/09:30pm 13.0 12.9 9.6 80 1.8 CALM 0 0 0 0 1019.7 1019.4 0.0
26/09:00pm 14.8 14.7 9.4 70 2.8 CALM 0 0 0 0 1019.4 1019.1 0.0
26/08:30pm 15.6 15.0 8.8 64 3.5 ESE 2 2 1 1 1019.1 1018.8 0.0
26/08:00pm 17.6 16.4 8.2 54 4.9 SSE 4 6 2 3 1018.8 1018.5 0.0
26/07:30pm 18.1 16.5 8.1 52 5.2 SSE 6 7 3 4 1018.6 1018.3 0.0
26/07:00pm 18.4 16.9 8.4 52 5.2 S 6 7 3 4 1018.2 1017.8 0.0
26/06:30pm 17.5 16.7 9.7 60 4.2 S 4 6 2 3 1017.7 1017.4 0.0
26/06:00pm 19.8 18.6 7.9 46 6.2 S 4 6 2 3 1017.4 1017.1 0.0
26/05:30pm 21.6 20.0 7.8 41 7.3 S 6 7 3 4 1017.0 1016.7 0.0
26/05:00pm 22.4 20.4 7.0 37 8.0 S 7 11 4 6 1016.6 1016.3 0.0
26/04:30pm 23.1 21.2 6.8 35 8.5 SSE 6 11 3 6 1016.5 1016.2 0.0
26/04:00pm 23.3 21.6 7.4 36 8.4 S 6 9 3 5 1016.4 1016.1 0.0
26/03:30pm 22.9 21.0 6.6 35 8.5 SE 6 17 3 9 1016.4 1016.1 0.0
26/03:00pm 23.3 21.4 6.6 34 8.7 ESE 6 11 3 6 1016.6 1016.3 0.0
26/02:30pm 22.7 20.7 6.9 36 8.2 ESE 7 13 4 7 1016.9 1016.6 0.0
26/02:00pm 22.8 20.4 7.0 36 8.2 SSE 9 17 5 9 1017.1 1016.8 0.0
26/01:30pm 22.0 19.0 5.8 35 8.2 SSE 11 15 6 8 1017.6 1017.3 0.0
26/01:00pm 21.7 19.5 6.4 37 7.8 SE 7 15 4 8 1018.3 1017.9 0.0
26/12:30pm 21.5 19.2 7.3 40 7.4 SE 9 19 5 10 1018.8 1018.5 0.0
26/12:00pm 20.6 18.6 7.2 42 6.9 SE 7 15 4 8 1019.5 1019.2 0.0
26/11:30am 19.8 16.9 6.5 42 6.8 SE 11 19 6 10 1019.6 1019.3 0.0
26/11:00am 19.3 16.9 7.1 45 6.2 ESE 9 15 5 8 1020.0 1019.7 0.0
26/10:30am 18.2 14.9 6.4 46 5.9 SE 13 20 7 11 1020.5 1020.2 0.0
26/10:00am 17.5 14.8 7.3 51 5.2 SE 11 17 6 9 1020.6 1020.3 0.0
26/09:30am 16.6 14.1 8.3 58 4.3 SE 11 15 6 8 1020.7 1020.4 0.0
26/09:00am 15.2 12.8 7.0 58 4.1 SE 9 17 5 9 1020.6 1020.3 0.0
26/08:30am 14.2 12.6 8.6 69 2.9 SE 7 13 4 7 1020.4 1020.1 0.0
26/08:00am 12.7 12.2 9.3 80 1.7 E 2 4 1 2 1020.3 1020.0 0.0
26/07:30am 9.8 9.5 8.7 93 0.5 CALM 0 0 0 0 1020.1 1019.8 0.0
26/07:00am 8.5 7.9 7.4 93 0.5 CALM 0 2 0 1 1019.6 1019.3 0.0
26/06:30am 8.5 7.9 7.3 92 0.6 CALM 0 0 0 0 1019.2 1018.9 0.0
26/06:00am 8.9 8.4 7.8 93 0.5 CALM 0 2 0 1 1018.9 1018.6 0.0
26/05:30am 9.0 8.1 7.9 93 0.5 SW 2 4 1 2 1018.7 1018.4 0.0
26/05:00am 9.1 7.9 8.2 94 0.4 SSW 4 6 2 3 1018.4 1018.0 0.0
26/04:30am 9.1 8.3 8.0 93 0.5 SSW 2 4 1 2 1018.2 1017.8 0.0
26/04:00am 9.3 8.9 8.2 93 0.5 CALM 0 0 0 0 1018.1 1017.7 0.0
26/03:30am 9.4 9.0 8.3 93 0.5 CALM 0 0 0 0 1017.9 1017.6 0.0
26/03:00am 9.5 9.1 8.4 93 0.5 CALM 0 0 0 0 1018.1 1017.7 0.0
26/02:30am 9.8 9.5 8.6 92 0.6 CALM 0 0 0 0 1018.4 1018.0 0.0
26/02:00am 9.8 9.1 8.6 92 0.6 W 2 4 1 2 1018.6 1018.3 0.0
26/01:30am 9.9 9.6 8.5 91 0.7 CALM 0 0 0 0 1018.8 1018.5 0.0
26/01:00am 10.3 10.1 8.9 91 0.7 CALM 0 0 0 0 1019.0 1018.7 0.0
26/12:30am 10.3 9.6 8.6 89 0.8 WSW 2 2 1 1 1019.2 1018.9 0.0
26/12:00am 10.4 9.0 8.8 90 0.8 SW 6 6 3 3 1019.2 1018.9 0.0
 
Date/Time
EST
Temp
°C
App
Temp
°C
Dew
Point
°C
Rel
Hum
%
Delta-T
°C
Wind Press
QNH
hPa
Press
MSL
hPa
Rain since
9am
mm
Dir  Spd
km/h
Gust
km/h
Spd
kts
Gust
kts
25/11:30pm 11.0 10.9 9.4 90 0.8 CALM 0 0 0 0 1019.1 1018.8 0.0
25/11:00pm 11.0 10.9 9.4 90 0.8 CALM 0 0 0 0 1019.1 1018.8 0.0
25/10:30pm 11.5 11.5 9.9 90 0.8 CALM 0 0 0 0 1019.3 1019.0 0.0
25/10:00pm 11.9 12.0 10.0 88 1.0 CALM 0 0 0 0 1019.2 1018.9 0.0
25/09:30pm 12.6 12.4 9.1 79 1.8 CALM 0 0 0 0 1019.1 1018.8 0.0
25/09:00pm 13.4 13.3 9.3 76 2.1 CALM 0 0 0 0 1019.2 1018.9 0.0
25/08:30pm 13.8 13.7 9.6 76 2.2 CALM 0 0 0 0 1019.2 1018.9 0.0
25/08:00pm 13.9 13.7 8.9 72 2.6 CALM 0 0 0 0 1019.0 1018.7 0.0
25/07:30pm 14.5 13.9 10.3 76 2.2 S 4 6 2 3 1018.7 1018.4 0.0
25/07:00pm 15.7 15.6 9.6 67 3.2 CALM 0 0 0 0 1018.3 1017.9 0.0
25/06:30pm 16.8 16.2 7.4 54 4.8 CALM 0 0 0 0 1017.8 1017.5 0.0
25/06:00pm 18.9 18.0 7.7 48 5.8 SSE 2 4 1 2 1017.6 1017.3 0.0
25/05:30pm 21.4 19.2 5.3 35 8.1 SSE 6 7 3 4 1017.4 1017.1 0.0
25/05:00pm 22.1 19.9 5.1 33 8.5 SSE 6 7 3 4 1017.2 1016.9 0.0
25/04:30pm 22.6 20.4 5.5 33 8.7 SSE 6 9 3 5 1017.1 1016.8 0.0
25/04:00pm 22.7 20.5 5.2 32 8.8 S 6 9 3 5 1017.0 1016.7 0.0
25/03:30pm 22.5 20.1 5.4 33 8.7 S 7 13 4 7 1017.0 1016.7 0.0
25/03:00pm 22.6 20.5 6.8 36 8.2 ESE 7 13 4 7 1016.9 1016.6 0.0
25/02:30pm 22.3 19.7 6.1 35 8.3 E 9 15 5 8 1017.2 1016.9 0.0
25/02:00pm 22.2 19.8 7.2 38 7.8 E 9 17 5 9 1017.4 1017.1 0.0
25/01:30pm 21.6 19.8 7.8 41 7.3 SSE 7 15 4 8 1017.7 1017.4 0.0
25/01:00pm 21.2 18.9 7.4 41 7.2 ESE 9 20 5 11 1018.1 1017.7 0.0

Other Formats:

Comma delimited format used in spreadsheet applications
http://www.bom.gov.au/fwo/IDQ60801/IDQ60801.94395.axf

JavaScript Object Notation format (JSON) in row-major order
http://www.bom.gov.au/fwo/IDQ60801/IDQ60801.94395.json